sensor_id;sensor_type;location;lat;lon;timestamp;P1;durP1;ratioP1;P2;durP2;ratioP2
7213;SDS011;3648;50.614;13.830;2022-09-21T00:00:22;8.50;;;4.50;;
7213;SDS011;3648;50.614;13.830;2022-09-21T00:02:49;7.17;;;4.60;;
7213;SDS011;3648;50.614;13.830;2022-09-21T00:05:17;9.17;;;4.77;;
7213;SDS011;3648;50.614;13.830;2022-09-21T00:07:45;4.77;;;3.23;;
7213;SDS011;3648;50.614;13.830;2022-09-21T00:10:12;5.83;;;3.97;;
7213;SDS011;3648;50.614;13.830;2022-09-21T00:12:40;5.77;;;2.93;;
7213;SDS011;3648;50.614;13.830;2022-09-21T00:15:08;3.80;;;2.73;;
7213;SDS011;3648;50.614;13.830;2022-09-21T00:17:36;5.43;;;3.57;;
7213;SDS011;3648;50.614;13.830;2022-09-21T00:20:03;3.80;;;2.67;;
7213;SDS011;3648;50.614;13.830;2022-09-21T00:22:32;5.70;;;3.00;;
7213;SDS011;3648;50.614;13.830;2022-09-21T00:25:00;4.87;;;3.13;;
7213;SDS011;3648;50.614;13.830;2022-09-21T00:27:28;4.30;;;3.00;;
7213;SDS011;3648;50.614;13.830;2022-09-21T00:29:55;7.70;;;3.10;;
7213;SDS011;3648;50.614;13.830;2022-09-21T00:32:23;5.17;;;3.23;;
7213;SDS011;3648;50.614;13.830;2022-09-21T00:34:50;5.77;;;3.53;;
7213;SDS011;3648;50.614;13.830;2022-09-21T00:37:17;9.07;;;3.10;;
7213;SDS011;3648;50.614;13.830;2022-09-21T00:39:45;6.70;;;3.40;;
7213;SDS011;3648;50.614;13.830;2022-09-21T00:42:15;6.00;;;3.27;;
7213;SDS011;3648;50.614;13.830;2022-09-21T00:44:44;5.23;;;3.63;;
7213;SDS011;3648;50.614;13.830;2022-09-21T00:47:11;5.40;;;3.53;;
7213;SDS011;3648;50.614;13.830;2022-09-21T00:49:40;5.93;;;3.60;;
7213;SDS011;3648;50.614;13.830;2022-09-21T00:52:09;4.40;;;3.53;;
7213;SDS011;3648;50.614;13.830;2022-09-21T00:54:39;5.43;;;3.73;;
7213;SDS011;3648;50.614;13.830;2022-09-21T00:57:10;4.30;;;3.00;;
7213;SDS011;3648;50.614;13.830;2022-09-21T00:59:41;4.87;;;3.83;;
7213;SDS011;3648;50.614;13.830;2022-09-21T01:02:10;4.63;;;3.33;;
7213;SDS011;3648;50.614;13.830;2022-09-21T01:04:39;4.77;;;3.73;;
7213;SDS011;3648;50.614;13.830;2022-09-21T01:07:07;6.03;;;3.70;;
7213;SDS011;3648;50.614;13.830;2022-09-21T01:09:37;6.23;;;4.20;;
7213;SDS011;3648;50.614;13.830;2022-09-21T01:12:08;5.53;;;3.97;;
7213;SDS011;3648;50.614;13.830;2022-09-21T01:14:55;6.00;;;3.47;;
7213;SDS011;3648;50.614;13.830;2022-09-21T01:17:32;4.53;;;3.53;;
7213;SDS011;3648;50.614;13.830;2022-09-21T01:23:24;4.47;;;3.63;;
7213;SDS011;3648;50.614;13.830;2022-09-21T01:26:23;4.27;;;3.77;;
7213;SDS011;3648;50.614;13.830;2022-09-21T01:29:09;3.93;;;3.27;;
7213;SDS011;3648;50.614;13.830;2022-09-21T01:31:43;4.77;;;3.37;;
7213;SDS011;3648;50.614;13.830;2022-09-21T01:34:22;5.03;;;3.33;;
7213;SDS011;3648;50.614;13.830;2022-09-21T01:36:55;4.57;;;3.80;;
7213;SDS011;3648;50.614;13.830;2022-09-21T01:39:24;6.57;;;4.03;;
7213;SDS011;3648;50.614;13.830;2022-09-21T01:41:53;5.73;;;4.13;;
7213;SDS011;3648;50.614;13.830;2022-09-21T01:44:24;5.70;;;4.27;;
7213;SDS011;3648;50.614;13.830;2022-09-21T01:46:57;4.03;;;3.37;;
7213;SDS011;3648;50.614;13.830;2022-09-21T01:49:26;3.60;;;3.30;;
7213;SDS011;3648;50.614;13.830;2022-09-21T01:51:59;4.80;;;3.23;;
7213;SDS011;3648;50.614;13.830;2022-09-21T01:54:32;4.83;;;3.90;;
7213;SDS011;3648;50.614;13.830;2022-09-21T01:57:05;5.50;;;3.80;;
7213;SDS011;3648;50.614;13.830;2022-09-21T01:59:39;4.87;;;3.03;;
7213;SDS011;3648;50.614;13.830;2022-09-21T02:02:14;3.80;;;3.10;;
7213;SDS011;3648;50.614;13.830;2022-09-21T02:04:44;3.93;;;3.53;;
7213;SDS011;3648;50.614;13.830;2022-09-21T02:07:11;4.40;;;3.40;;
7213;SDS011;3648;50.614;13.830;2022-09-21T02:09:38;3.87;;;3.47;;
7213;SDS011;3648;50.614;13.830;2022-09-21T02:12:05;4.10;;;3.20;;
7213;SDS011;3648;50.614;13.830;2022-09-21T02:14:34;5.30;;;3.30;;
7213;SDS011;3648;50.614;13.830;2022-09-21T02:17:07;3.23;;;2.90;;
7213;SDS011;3648;50.614;13.830;2022-09-21T02:19:47;3.47;;;2.77;;
7213;SDS011;3648;50.614;13.830;2022-09-21T02:22:21;3.10;;;2.50;;
7213;SDS011;3648;50.614;13.830;2022-09-21T02:24:54;3.30;;;2.87;;
7213;SDS011;3648;50.614;13.830;2022-09-21T02:27:30;3.53;;;2.77;;
7213;SDS011;3648;50.614;13.830;2022-09-21T02:30:03;4.27;;;3.10;;
7213;SDS011;3648;50.614;13.830;2022-09-21T02:32:36;5.87;;;3.67;;
7213;SDS011;3648;50.614;13.830;2022-09-21T02:35:15;3.53;;;3.23;;
7213;SDS011;3648;50.614;13.830;2022-09-21T02:37:52;3.40;;;2.83;;
7213;SDS011;3648;50.614;13.830;2022-09-21T02:40:24;3.00;;;2.50;;
7213;SDS011;3648;50.614;13.830;2022-09-21T02:42:57;2.40;;;2.20;;
7213;SDS011;3648;50.614;13.830;2022-09-21T02:45:29;4.63;;;2.33;;
7213;SDS011;3648;50.614;13.830;2022-09-21T02:48:02;3.63;;;3.07;;
7213;SDS011;3648;50.614;13.830;2022-09-21T02:50:35;3.03;;;2.40;;
7213;SDS011;3648;50.614;13.830;2022-09-21T02:53:06;3.17;;;2.40;;
7213;SDS011;3648;50.614;13.830;2022-09-21T02:55:36;3.10;;;2.30;;
7213;SDS011;3648;50.614;13.830;2022-09-21T02:58:05;2.93;;;2.33;;
7213;SDS011;3648;50.614;13.830;2022-09-21T03:00:35;2.77;;;2.40;;
7213;SDS011;3648;50.614;13.830;2022-09-21T03:03:14;4.00;;;2.73;;
7213;SDS011;3648;50.614;13.830;2022-09-21T03:05:42;2.93;;;2.70;;
7213;SDS011;3648;50.614;13.830;2022-09-21T03:08:10;3.27;;;2.50;;
7213;SDS011;3648;50.614;13.830;2022-09-21T03:10:37;3.30;;;2.43;;
7213;SDS011;3648;50.614;13.830;2022-09-21T03:13:05;8.50;;;3.07;;
7213;SDS011;3648;50.614;13.830;2022-09-21T03:15:33;2.33;;;1.90;;
7213;SDS011;3648;50.614;13.830;2022-09-21T03:18:01;2.83;;;2.50;;
7213;SDS011;3648;50.614;13.830;2022-09-21T03:20:30;2.70;;;2.27;;
7213;SDS011;3648;50.614;13.830;2022-09-21T03:22:58;2.57;;;2.07;;
7213;SDS011;3648;50.614;13.830;2022-09-21T03:25:25;2.77;;;2.53;;
7213;SDS011;3648;50.614;13.830;2022-09-21T03:27:53;2.87;;;2.30;;
7213;SDS011;3648;50.614;13.830;2022-09-21T03:30:20;3.20;;;2.60;;
7213;SDS011;3648;50.614;13.830;2022-09-21T03:32:48;4.17;;;3.00;;
7213;SDS011;3648;50.614;13.830;2022-09-21T03:35:15;3.73;;;3.00;;
7213;SDS011;3648;50.614;13.830;2022-09-21T03:37:44;3.90;;;3.47;;
7213;SDS011;3648;50.614;13.830;2022-09-21T03:40:11;8.73;;;4.57;;
7213;SDS011;3648;50.614;13.830;2022-09-21T03:42:39;8.00;;;4.13;;
7213;SDS011;3648;50.614;13.830;2022-09-21T03:45:07;5.80;;;3.90;;
7213;SDS011;3648;50.614;13.830;2022-09-21T03:47:36;4.07;;;3.13;;
7213;SDS011;3648;50.614;13.830;2022-09-21T03:50:04;4.37;;;3.07;;
7213;SDS011;3648;50.614;13.830;2022-09-21T03:52:31;3.63;;;3.03;;
7213;SDS011;3648;50.614;13.830;2022-09-21T03:55:02;4.63;;;3.00;;
7213;SDS011;3648;50.614;13.830;2022-09-21T03:57:30;3.20;;;2.90;;
7213;SDS011;3648;50.614;13.830;2022-09-21T03:59:58;4.40;;;3.00;;
7213;SDS011;3648;50.614;13.830;2022-09-21T04:02:27;3.67;;;2.40;;
7213;SDS011;3648;50.614;13.830;2022-09-21T04:04:55;3.00;;;2.70;;
7213;SDS011;3648;50.614;13.830;2022-09-21T04:07:22;3.10;;;2.80;;
7213;SDS011;3648;50.614;13.830;2022-09-21T04:09:49;4.13;;;2.80;;
7213;SDS011;3648;50.614;13.830;2022-09-21T04:12:17;2.87;;;2.60;;
7213;SDS011;3648;50.614;13.830;2022-09-21T04:14:47;3.27;;;2.70;;
7213;SDS011;3648;50.614;13.830;2022-09-21T04:17:15;2.90;;;2.70;;
7213;SDS011;3648;50.614;13.830;2022-09-21T04:19:42;3.20;;;2.90;;
7213;SDS011;3648;50.614;13.830;2022-09-21T04:22:10;3.93;;;2.93;;
7213;SDS011;3648;50.614;13.830;2022-09-21T04:24:38;2.57;;;2.27;;
7213;SDS011;3648;50.614;13.830;2022-09-21T04:27:05;4.33;;;3.93;;
7213;SDS011;3648;50.614;13.830;2022-09-21T04:29:34;3.70;;;3.10;;
7213;SDS011;3648;50.614;13.830;2022-09-21T04:32:02;4.83;;;3.60;;
7213;SDS011;3648;50.614;13.830;2022-09-21T04:34:29;4.33;;;3.70;;
7213;SDS011;3648;50.614;13.830;2022-09-21T04:36:57;4.30;;;3.70;;
7213;SDS011;3648;50.614;13.830;2022-09-21T04:39:24;5.57;;;3.83;;
7213;SDS011;3648;50.614;13.830;2022-09-21T04:41:51;5.40;;;4.73;;
7213;SDS011;3648;50.614;13.830;2022-09-21T04:44:19;5.30;;;4.77;;
7213;SDS011;3648;50.614;13.830;2022-09-21T04:46:47;7.77;;;5.43;;
7213;SDS011;3648;50.614;13.830;2022-09-21T04:49:15;8.87;;;5.93;;
7213;SDS011;3648;50.614;13.830;2022-09-21T04:51:42;8.00;;;6.23;;
7213;SDS011;3648;50.614;13.830;2022-09-21T04:54:09;10.50;;;6.63;;
7213;SDS011;3648;50.614;13.830;2022-09-21T04:56:37;9.73;;;6.90;;
7213;SDS011;3648;50.614;13.830;2022-09-21T04:59:04;9.17;;;6.53;;
7213;SDS011;3648;50.614;13.830;2022-09-21T05:01:32;6.13;;;5.00;;
7213;SDS011;3648;50.614;13.830;2022-09-21T05:04:01;8.60;;;4.33;;
7213;SDS011;3648;50.614;13.830;2022-09-21T05:06:30;6.70;;;4.27;;
7213;SDS011;3648;50.614;13.830;2022-09-21T05:08:59;5.80;;;4.23;;
7213;SDS011;3648;50.614;13.830;2022-09-21T05:11:43;4.20;;;3.70;;
7213;SDS011;3648;50.614;13.830;2022-09-21T05:14:11;5.57;;;3.57;;
7213;SDS011;3648;50.614;13.830;2022-09-21T05:16:39;5.47;;;3.30;;
7213;SDS011;3648;50.614;13.830;2022-09-21T05:19:07;6.97;;;4.83;;
7213;SDS011;3648;50.614;13.830;2022-09-21T05:21:35;4.77;;;3.90;;
7213;SDS011;3648;50.614;13.830;2022-09-21T05:24:03;5.77;;;4.97;;
7213;SDS011;3648;50.614;13.830;2022-09-21T05:26:30;6.23;;;4.33;;
7213;SDS011;3648;50.614;13.830;2022-09-21T05:28:58;6.30;;;5.23;;
7213;SDS011;3648;50.614;13.830;2022-09-21T05:31:28;12.07;;;6.53;;
7213;SDS011;3648;50.614;13.830;2022-09-21T05:34:02;7.40;;;6.47;;
7213;SDS011;3648;50.614;13.830;2022-09-21T05:36:43;8.20;;;6.77;;
7213;SDS011;3648;50.614;13.830;2022-09-21T05:39:16;10.63;;;7.50;;
7213;SDS011;3648;50.614;13.830;2022-09-21T05:41:44;9.33;;;6.90;;
7213;SDS011;3648;50.614;13.830;2022-09-21T05:44:12;13.27;;;9.80;;
7213;SDS011;3648;50.614;13.830;2022-09-21T05:46:40;15.33;;;10.33;;
7213;SDS011;3648;50.614;13.830;2022-09-21T05:49:16;16.00;;;10.97;;
7213;SDS011;3648;50.614;13.830;2022-09-21T05:51:51;20.03;;;14.03;;
7213;SDS011;3648;50.614;13.830;2022-09-21T05:54:25;16.47;;;11.53;;
7213;SDS011;3648;50.614;13.830;2022-09-21T05:57:04;12.37;;;9.50;;
7213;SDS011;3648;50.614;13.830;2022-09-21T05:59:42;10.33;;;8.43;;
7213;SDS011;3648;50.614;13.830;2022-09-21T06:02:21;9.93;;;7.23;;
7213;SDS011;3648;50.614;13.830;2022-09-21T06:04:56;12.73;;;9.10;;
7213;SDS011;3648;50.614;13.830;2022-09-21T06:07:28;9.17;;;7.50;;
7213;SDS011;3648;50.614;13.830;2022-09-21T06:09:55;12.10;;;8.63;;
7213;SDS011;3648;50.614;13.830;2022-09-21T06:12:23;12.50;;;9.37;;
7213;SDS011;3648;50.614;13.830;2022-09-21T06:14:50;9.27;;;7.87;;
7213;SDS011;3648;50.614;13.830;2022-09-21T06:17:18;9.00;;;6.80;;
7213;SDS011;3648;50.614;13.830;2022-09-21T06:19:45;8.10;;;6.20;;
7213;SDS011;3648;50.614;13.830;2022-09-21T06:22:13;6.83;;;5.63;;
7213;SDS011;3648;50.614;13.830;2022-09-21T06:24:41;6.77;;;5.93;;
7213;SDS011;3648;50.614;13.830;2022-09-21T06:27:09;8.37;;;6.30;;
7213;SDS011;3648;50.614;13.830;2022-09-21T06:29:37;7.00;;;5.93;;
7213;SDS011;3648;50.614;13.830;2022-09-21T06:32:04;5.80;;;5.20;;
7213;SDS011;3648;50.614;13.830;2022-09-21T06:34:32;6.23;;;5.20;;
7213;SDS011;3648;50.614;13.830;2022-09-21T06:37:00;6.07;;;5.10;;
7213;SDS011;3648;50.614;13.830;2022-09-21T06:39:28;7.17;;;5.37;;
7213;SDS011;3648;50.614;13.830;2022-09-21T06:41:57;7.67;;;5.33;;
7213;SDS011;3648;50.614;13.830;2022-09-21T06:44:24;7.73;;;5.10;;
7213;SDS011;3648;50.614;13.830;2022-09-21T06:46:54;6.47;;;5.40;;
7213;SDS011;3648;50.614;13.830;2022-09-21T06:49:21;9.20;;;6.80;;
7213;SDS011;3648;50.614;13.830;2022-09-21T06:51:49;9.43;;;6.27;;
7213;SDS011;3648;50.614;13.830;2022-09-21T06:54:16;8.37;;;6.80;;
7213;SDS011;3648;50.614;13.830;2022-09-21T06:56:43;6.53;;;5.37;;
7213;SDS011;3648;50.614;13.830;2022-09-21T06:59:12;9.17;;;6.30;;
7213;SDS011;3648;50.614;13.830;2022-09-21T07:01:40;16.40;;;9.67;;
7213;SDS011;3648;50.614;13.830;2022-09-21T07:04:08;13.20;;;7.17;;
7213;SDS011;3648;50.614;13.830;2022-09-21T07:06:35;10.00;;;6.70;;
7213;SDS011;3648;50.614;13.830;2022-09-21T07:09:03;8.40;;;5.80;;
7213;SDS011;3648;50.614;13.830;2022-09-21T07:11:30;6.73;;;6.03;;
7213;SDS011;3648;50.614;13.830;2022-09-21T07:14:06;7.33;;;5.47;;
7213;SDS011;3648;50.614;13.830;2022-09-21T07:16:35;7.73;;;6.93;;
7213;SDS011;3648;50.614;13.830;2022-09-21T07:19:03;9.10;;;6.83;;
7213;SDS011;3648;50.614;13.830;2022-09-21T07:21:31;10.57;;;7.57;;
7213;SDS011;3648;50.614;13.830;2022-09-21T07:23:58;23.43;;;14.33;;
7213;SDS011;3648;50.614;13.830;2022-09-21T07:26:26;23.33;;;13.50;;
7213;SDS011;3648;50.614;13.830;2022-09-21T07:28:54;16.40;;;11.07;;
7213;SDS011;3648;50.614;13.830;2022-09-21T07:31:22;17.97;;;11.97;;
7213;SDS011;3648;50.614;13.830;2022-09-21T07:33:54;14.23;;;9.97;;
7213;SDS011;3648;50.614;13.830;2022-09-21T07:36:22;10.43;;;7.70;;
7213;SDS011;3648;50.614;13.830;2022-09-21T07:38:50;10.73;;;7.67;;
7213;SDS011;3648;50.614;13.830;2022-09-21T07:41:18;10.07;;;7.13;;
7213;SDS011;3648;50.614;13.830;2022-09-21T07:43:47;13.47;;;9.33;;
7213;SDS011;3648;50.614;13.830;2022-09-21T07:46:15;12.00;;;8.10;;
7213;SDS011;3648;50.614;13.830;2022-09-21T07:48:42;14.37;;;10.13;;
7213;SDS011;3648;50.614;13.830;2022-09-21T07:51:12;11.53;;;8.63;;
7213;SDS011;3648;50.614;13.830;2022-09-21T07:53:41;11.40;;;6.40;;
7213;SDS011;3648;50.614;13.830;2022-09-21T07:56:10;7.40;;;5.83;;
7213;SDS011;3648;50.614;13.830;2022-09-21T07:58:39;6.00;;;5.03;;
7213;SDS011;3648;50.614;13.830;2022-09-21T08:01:24;7.57;;;5.47;;
7213;SDS011;3648;50.614;13.830;2022-09-21T08:03:53;7.20;;;5.23;;
7213;SDS011;3648;50.614;13.830;2022-09-21T08:06:23;8.40;;;6.00;;
7213;SDS011;3648;50.614;13.830;2022-09-21T08:08:51;5.40;;;4.57;;
7213;SDS011;3648;50.614;13.830;2022-09-21T08:11:20;6.30;;;4.57;;
7213;SDS011;3648;50.614;13.830;2022-09-21T08:13:51;9.50;;;6.23;;
7213;SDS011;3648;50.614;13.830;2022-09-21T08:16:20;35.13;;;29.37;;
7213;SDS011;3648;50.614;13.830;2022-09-21T08:18:49;15.10;;;9.57;;
7213;SDS011;3648;50.614;13.830;2022-09-21T08:21:18;10.63;;;7.63;;
7213;SDS011;3648;50.614;13.830;2022-09-21T08:23:48;7.83;;;5.70;;
7213;SDS011;3648;50.614;13.830;2022-09-21T08:26:16;7.20;;;5.63;;
7213;SDS011;3648;50.614;13.830;2022-09-21T08:28:44;7.37;;;4.77;;
7213;SDS011;3648;50.614;13.830;2022-09-21T08:31:14;5.93;;;4.40;;
7213;SDS011;3648;50.614;13.830;2022-09-21T08:33:43;4.73;;;3.20;;
7213;SDS011;3648;50.614;13.830;2022-09-21T08:36:11;3.60;;;3.30;;
7213;SDS011;3648;50.614;13.830;2022-09-21T08:38:38;3.33;;;3.03;;
7213;SDS011;3648;50.614;13.830;2022-09-21T08:41:14;4.17;;;3.73;;
7213;SDS011;3648;50.614;13.830;2022-09-21T08:43:44;6.30;;;4.10;;
7213;SDS011;3648;50.614;13.830;2022-09-21T08:46:17;3.97;;;3.10;;
7213;SDS011;3648;50.614;13.830;2022-09-21T08:48:47;3.67;;;2.87;;
7213;SDS011;3648;50.614;13.830;2022-09-21T08:51:20;2.93;;;2.63;;
7213;SDS011;3648;50.614;13.830;2022-09-21T08:53:51;3.70;;;2.77;;
7213;SDS011;3648;50.614;13.830;2022-09-21T08:56:25;8.90;;;5.27;;
7213;SDS011;3648;50.614;13.830;2022-09-21T08:58:53;8.47;;;3.27;;
7213;SDS011;3648;50.614;13.830;2022-09-21T09:01:27;2.97;;;2.63;;
7213;SDS011;3648;50.614;13.830;2022-09-21T09:04:17;2.93;;;2.47;;
7213;SDS011;3648;50.614;13.830;2022-09-21T09:06:54;2.67;;;2.47;;
7213;SDS011;3648;50.614;13.830;2022-09-21T09:09:40;2.50;;;2.03;;
7213;SDS011;3648;50.614;13.830;2022-09-21T09:12:36;3.80;;;2.27;;
7213;SDS011;3648;50.614;13.830;2022-09-21T09:18:07;1.97;;;1.87;;
7213;SDS011;3648;50.614;13.830;2022-09-21T09:20:38;5.10;;;3.37;;
7213;SDS011;3648;50.614;13.830;2022-09-21T09:23:10;4.10;;;3.20;;
7213;SDS011;3648;50.614;13.830;2022-09-21T09:25:52;6.47;;;4.37;;
7213;SDS011;3648;50.614;13.830;2022-09-21T09:28:29;8.27;;;5.80;;
7213;SDS011;3648;50.614;13.830;2022-09-21T09:31:02;13.80;;;8.40;;
7213;SDS011;3648;50.614;13.830;2022-09-21T09:33:40;9.47;;;5.87;;
7213;SDS011;3648;50.614;13.830;2022-09-21T09:36:15;6.93;;;5.80;;
7213;SDS011;3648;50.614;13.830;2022-09-21T09:38:43;7.93;;;4.90;;
7213;SDS011;3648;50.614;13.830;2022-09-21T09:41:37;4.40;;;4.00;;
7213;SDS011;3648;50.614;13.830;2022-09-21T09:44:29;3.73;;;3.20;;
7213;SDS011;3648;50.614;13.830;2022-09-21T09:47:15;4.80;;;3.03;;
7213;SDS011;3648;50.614;13.830;2022-09-21T09:49:54;4.03;;;2.50;;
7213;SDS011;3648;50.614;13.830;2022-09-21T09:52:28;6.37;;;2.63;;
7213;SDS011;3648;50.614;13.830;2022-09-21T09:54:57;3.70;;;2.63;;
7213;SDS011;3648;50.614;13.830;2022-09-21T09:57:26;3.60;;;3.17;;
7213;SDS011;3648;50.614;13.830;2022-09-21T09:59:57;3.33;;;2.20;;
7213;SDS011;3648;50.614;13.830;2022-09-21T10:02:28;3.30;;;2.27;;
7213;SDS011;3648;50.614;13.830;2022-09-21T10:04:56;3.20;;;2.30;;
7213;SDS011;3648;50.614;13.830;2022-09-21T10:07:38;4.93;;;2.50;;
7213;SDS011;3648;50.614;13.830;2022-09-21T10:10:21;14.07;;;9.87;;
7213;SDS011;3648;50.614;13.830;2022-09-21T10:13:09;7.23;;;5.10;;
7213;SDS011;3648;50.614;13.830;2022-09-21T10:15:41;7.23;;;5.00;;
7213;SDS011;3648;50.614;13.830;2022-09-21T10:18:15;6.13;;;4.10;;
7213;SDS011;3648;50.614;13.830;2022-09-21T10:20:51;6.97;;;4.60;;
7213;SDS011;3648;50.614;13.830;2022-09-21T10:23:24;3.90;;;2.73;;
7213;SDS011;3648;50.614;13.830;2022-09-21T10:25:52;4.73;;;2.30;;
7213;SDS011;3648;50.614;13.830;2022-09-21T10:28:25;3.30;;;1.90;;
7213;SDS011;3648;50.614;13.830;2022-09-21T10:33:47;2.47;;;1.40;;
7213;SDS011;3648;50.614;13.830;2022-09-21T10:36:23;1.43;;;1.20;;
7213;SDS011;3648;50.614;13.830;2022-09-21T10:38:53;1.17;;;1.00;;
7213;SDS011;3648;50.614;13.830;2022-09-21T10:41:20;1.33;;;0.90;;
7213;SDS011;3648;50.614;13.830;2022-09-21T10:43:48;1.93;;;1.00;;
7213;SDS011;3648;50.614;13.830;2022-09-21T10:46:16;1.27;;;1.00;;
7213;SDS011;3648;50.614;13.830;2022-09-21T10:48:57;1.33;;;0.80;;
7213;SDS011;3648;50.614;13.830;2022-09-21T10:51:26;1.23;;;0.80;;
7213;SDS011;3648;50.614;13.830;2022-09-21T10:53:55;0.80;;;0.70;;
7213;SDS011;3648;50.614;13.830;2022-09-21T10:56:24;0.80;;;0.70;;
7213;SDS011;3648;50.614;13.830;2022-09-21T10:59:10;0.80;;;0.70;;
7213;SDS011;3648;50.614;13.830;2022-09-21T11:01:48;0.80;;;0.70;;
7213;SDS011;3648;50.614;13.830;2022-09-21T11:04:18;0.70;;;0.67;;
7213;SDS011;3648;50.614;13.830;2022-09-21T11:07:08;0.53;;;0.53;;
7213;SDS011;3648;50.614;13.830;2022-09-21T11:09:42;0.63;;;0.63;;
7213;SDS011;3648;50.614;13.830;2022-09-21T11:15:09;0.93;;;0.83;;
7213;SDS011;3648;50.614;13.830;2022-09-21T11:17:45;0.77;;;0.60;;
7213;SDS011;3648;50.614;13.830;2022-09-21T11:20:19;0.77;;;0.77;;
7213;SDS011;3648;50.614;13.830;2022-09-21T11:22:54;1.27;;;0.80;;
7213;SDS011;3648;50.614;13.830;2022-09-21T11:25:30;1.20;;;0.90;;
7213;SDS011;3648;50.614;13.830;2022-09-21T11:28:05;0.70;;;0.70;;
7213;SDS011;3648;50.614;13.830;2022-09-21T11:31:01;0.97;;;0.80;;
7213;SDS011;3648;50.614;13.830;2022-09-21T11:34:05;0.90;;;0.70;;
7213;SDS011;3648;50.614;13.830;2022-09-21T11:36:53;0.77;;;0.77;;
7213;SDS011;3648;50.614;13.830;2022-09-21T11:39:29;0.60;;;0.60;;
7213;SDS011;3648;50.614;13.830;2022-09-21T11:42:12;1.03;;;0.70;;
7213;SDS011;3648;50.614;13.830;2022-09-21T11:44:48;0.70;;;0.70;;
7213;SDS011;3648;50.614;13.830;2022-09-21T11:47:36;0.83;;;0.70;;
7213;SDS011;3648;50.614;13.830;2022-09-21T11:50:30;0.80;;;0.70;;
7213;SDS011;3648;50.614;13.830;2022-09-21T11:53:15;0.80;;;0.73;;
7213;SDS011;3648;50.614;13.830;2022-09-21T11:56:04;0.73;;;0.60;;
7213;SDS011;3648;50.614;13.830;2022-09-21T11:58:52;2.50;;;1.17;;
7213;SDS011;3648;50.614;13.830;2022-09-21T12:01:28;1.97;;;0.80;;
7213;SDS011;3648;50.614;13.830;2022-09-21T12:04:33;0.70;;;0.70;;
7213;SDS011;3648;50.614;13.830;2022-09-21T12:07:17;2.40;;;0.73;;
7213;SDS011;3648;50.614;13.830;2022-09-21T12:09:57;0.67;;;0.67;;
7213;SDS011;3648;50.614;13.830;2022-09-21T12:12:31;1.00;;;0.90;;
7213;SDS011;3648;50.614;13.830;2022-09-21T12:15:08;0.90;;;0.80;;
7213;SDS011;3648;50.614;13.830;2022-09-21T12:17:42;2.10;;;0.73;;
7213;SDS011;3648;50.614;13.830;2022-09-21T12:20:17;0.90;;;0.80;;
7213;SDS011;3648;50.614;13.830;2022-09-21T12:22:55;0.70;;;0.70;;
7213;SDS011;3648;50.614;13.830;2022-09-21T12:25:27;0.80;;;0.80;;
7213;SDS011;3648;50.614;13.830;2022-09-21T12:28:02;1.10;;;1.00;;
7213;SDS011;3648;50.614;13.830;2022-09-21T12:30:35;1.20;;;1.10;;
7213;SDS011;3648;50.614;13.830;2022-09-21T12:33:05;1.10;;;0.97;;
7213;SDS011;3648;50.614;13.830;2022-09-21T12:35:40;1.10;;;1.00;;
7213;SDS011;3648;50.614;13.830;2022-09-21T12:38:13;2.37;;;0.97;;
7213;SDS011;3648;50.614;13.830;2022-09-21T12:40:44;1.37;;;0.80;;
7213;SDS011;3648;50.614;13.830;2022-09-21T12:43:20;1.33;;;1.00;;
7213;SDS011;3648;50.614;13.830;2022-09-21T12:45:55;0.80;;;0.50;;
7213;SDS011;3648;50.614;13.830;2022-09-21T12:48:28;1.83;;;0.70;;
7213;SDS011;3648;50.614;13.830;2022-09-21T12:50:58;0.90;;;0.70;;
7213;SDS011;3648;50.614;13.830;2022-09-21T12:53:34;0.60;;;0.60;;
7213;SDS011;3648;50.614;13.830;2022-09-21T12:56:04;1.07;;;0.70;;
7213;SDS011;3648;50.614;13.830;2022-09-21T12:58:42;0.77;;;0.70;;
7213;SDS011;3648;50.614;13.830;2022-09-21T13:01:21;1.30;;;0.87;;
7213;SDS011;3648;50.614;13.830;2022-09-21T13:03:59;1.53;;;1.27;;
7213;SDS011;3648;50.614;13.830;2022-09-21T13:06:47;0.70;;;0.70;;
7213;SDS011;3648;50.614;13.830;2022-09-21T13:09:36;0.87;;;0.70;;
7213;SDS011;3648;50.614;13.830;2022-09-21T13:12:07;0.57;;;0.57;;
7213;SDS011;3648;50.614;13.830;2022-09-21T13:14:40;0.80;;;0.70;;
7213;SDS011;3648;50.614;13.830;2022-09-21T13:17:16;0.70;;;0.70;;
7213;SDS011;3648;50.614;13.830;2022-09-21T13:19:54;1.43;;;0.77;;
7213;SDS011;3648;50.614;13.830;2022-09-21T13:22:23;0.93;;;0.80;;
7213;SDS011;3648;50.614;13.830;2022-09-21T13:25:03;1.40;;;0.90;;
7213;SDS011;3648;50.614;13.830;2022-09-21T13:30:38;1.73;;;0.93;;
7213;SDS011;3648;50.614;13.830;2022-09-21T13:36:07;1.37;;;1.00;;
7213;SDS011;3648;50.614;13.830;2022-09-21T13:38:55;3.90;;;1.07;;
7213;SDS011;3648;50.614;13.830;2022-09-21T13:41:30;1.13;;;0.80;;
7213;SDS011;3648;50.614;13.830;2022-09-21T13:44:01;0.93;;;0.70;;
7213;SDS011;3648;50.614;13.830;2022-09-21T13:49:31;2.70;;;1.00;;
7213;SDS011;3648;50.614;13.830;2022-09-21T13:52:30;0.73;;;0.73;;
7213;SDS011;3648;50.614;13.830;2022-09-21T13:55:05;0.60;;;0.60;;
7213;SDS011;3648;50.614;13.830;2022-09-21T13:57:48;1.53;;;0.80;;
7213;SDS011;3648;50.614;13.830;2022-09-21T14:00:35;1.20;;;0.70;;
7213;SDS011;3648;50.614;13.830;2022-09-21T14:03:06;1.47;;;1.10;;
7213;SDS011;3648;50.614;13.830;2022-09-21T14:05:47;1.50;;;0.90;;
7213;SDS011;3648;50.614;13.830;2022-09-21T14:08:19;0.83;;;0.80;;
7213;SDS011;3648;50.614;13.830;2022-09-21T14:10:56;2.77;;;1.03;;
7213;SDS011;3648;50.614;13.830;2022-09-21T14:13:36;1.67;;;1.00;;
7213;SDS011;3648;50.614;13.830;2022-09-21T14:25:21;1.10;;;0.70;;
7213;SDS011;3648;50.614;13.830;2022-09-21T14:28:01;1.00;;;0.70;;
7213;SDS011;3648;50.614;13.830;2022-09-21T14:30:39;1.20;;;0.87;;
7213;SDS011;3648;50.614;13.830;2022-09-21T14:33:19;1.60;;;1.00;;
7213;SDS011;3648;50.614;13.830;2022-09-21T14:35:52;2.03;;;1.00;;
7213;SDS011;3648;50.614;13.830;2022-09-21T14:38:23;1.43;;;1.07;;
7213;SDS011;3648;50.614;13.830;2022-09-21T14:40:54;2.17;;;1.10;;
7213;SDS011;3648;50.614;13.830;2022-09-21T14:43:28;1.50;;;1.00;;
7213;SDS011;3648;50.614;13.830;2022-09-21T14:46:05;1.30;;;0.93;;
7213;SDS011;3648;50.614;13.830;2022-09-21T14:48:44;21.80;;;2.20;;
7213;SDS011;3648;50.614;13.830;2022-09-21T14:51:21;1.50;;;1.00;;
7213;SDS011;3648;50.614;13.830;2022-09-21T14:54:06;1.63;;;1.00;;
7213;SDS011;3648;50.614;13.830;2022-09-21T14:56:57;1.33;;;1.23;;
7213;SDS011;3648;50.614;13.830;2022-09-21T14:59:38;1.30;;;0.80;;
7213;SDS011;3648;50.614;13.830;2022-09-21T15:02:28;1.00;;;0.80;;
7213;SDS011;3648;50.614;13.830;2022-09-21T15:08:01;1.33;;;1.10;;
7213;SDS011;3648;50.614;13.830;2022-09-21T15:10:55;1.23;;;0.90;;
7213;SDS011;3648;50.614;13.830;2022-09-21T15:16:37;1.80;;;1.13;;
7213;SDS011;3648;50.614;13.830;2022-09-21T15:19:13;1.13;;;1.03;;
7213;SDS011;3648;50.614;13.830;2022-09-21T15:21:49;1.73;;;1.20;;
7213;SDS011;3648;50.614;13.830;2022-09-21T15:24:20;1.27;;;0.93;;
7213;SDS011;3648;50.614;13.830;2022-09-21T15:26:50;1.50;;;1.20;;
7213;SDS011;3648;50.614;13.830;2022-09-21T15:29:22;2.50;;;1.80;;
7213;SDS011;3648;50.614;13.830;2022-09-21T15:31:52;0.97;;;0.90;;
7213;SDS011;3648;50.614;13.830;2022-09-21T15:34:22;2.73;;;1.87;;
7213;SDS011;3648;50.614;13.830;2022-09-21T15:36:50;1.90;;;1.20;;
7213;SDS011;3648;50.614;13.830;2022-09-21T15:39:22;1.73;;;1.33;;
7213;SDS011;3648;50.614;13.830;2022-09-21T15:44:42;2.63;;;1.13;;
7213;SDS011;3648;50.614;13.830;2022-09-21T15:47:13;2.50;;;0.93;;
7213;SDS011;3648;50.614;13.830;2022-09-21T15:49:45;1.03;;;0.90;;
7213;SDS011;3648;50.614;13.830;2022-09-21T15:52:17;1.83;;;1.00;;
7213;SDS011;3648;50.614;13.830;2022-09-21T15:54:51;20.23;;;4.00;;
7213;SDS011;3648;50.614;13.830;2022-09-21T15:57:22;9.07;;;2.77;;
7213;SDS011;3648;50.614;13.830;2022-09-21T15:59:55;4.40;;;1.20;;
7213;SDS011;3648;50.614;13.830;2022-09-21T16:02:24;5.93;;;2.27;;
7213;SDS011;3648;50.614;13.830;2022-09-21T16:04:56;14.53;;;4.17;;
7213;SDS011;3648;50.614;13.830;2022-09-21T16:07:24;4.03;;;2.00;;
7213;SDS011;3648;50.614;13.830;2022-09-21T16:09:56;1.67;;;1.20;;
7213;SDS011;3648;50.614;13.830;2022-09-21T16:12:36;4.93;;;2.37;;